createdAt,value
2024-01-21T00:02:24.335Z,2.98
2024-01-21T00:06:26.498Z,3.00
2024-01-21T00:10:28.631Z,3.05
2024-01-21T00:14:30.764Z,2.92
2024-01-21T00:18:33.007Z,2.87
2024-01-21T00:22:35.503Z,2.81
2024-01-21T00:26:37.839Z,2.84
2024-01-21T00:30:41.285Z,2.90
2024-01-21T00:34:43.910Z,2.83
2024-01-21T00:38:46.667Z,2.92
2024-01-21T00:42:49.170Z,2.87
2024-01-21T00:46:52.123Z,2.97
2024-01-21T00:50:54.224Z,2.89
2024-01-21T00:54:56.627Z,3.00
2024-01-21T00:58:58.762Z,2.97
2024-01-21T01:03:01.071Z,3.09
2024-01-21T01:07:03.537Z,3.04
2024-01-21T01:11:05.733Z,3.03
2024-01-21T01:15:12.416Z,2.89
2024-01-21T01:19:14.725Z,2.88
2024-01-21T01:23:16.860Z,2.86
2024-01-21T01:27:19.149Z,2.76
2024-01-21T01:31:22.240Z,2.68
2024-01-21T01:35:26.881Z,2.68
2024-01-21T01:39:29.020Z,2.69
2024-01-21T01:43:31.419Z,2.69
2024-01-21T01:47:34.322Z,3.05
2024-01-21T01:51:37.965Z,3.08
2024-01-21T01:55:40.305Z,3.08
2024-01-21T01:59:42.628Z,3.11
2024-01-21T02:03:46.581Z,3.03
2024-01-21T02:07:48.814Z,3.05
2024-01-21T02:11:51.194Z,3.03
2024-01-21T02:15:53.416Z,2.99
2024-01-21T02:19:55.513Z,2.76
2024-01-21T02:23:57.661Z,2.83
2024-01-21T02:27:59.727Z,2.79
2024-01-21T02:32:01.922Z,2.84
2024-01-21T02:36:04.250Z,2.72
2024-01-21T02:40:06.966Z,2.77
2024-01-21T02:44:09.120Z,2.61
2024-01-21T02:48:11.448Z,2.66
2024-01-21T02:52:13.635Z,2.60
2024-01-21T02:56:26.773Z,2.71
2024-01-21T03:00:28.957Z,2.74
2024-01-21T03:04:31.101Z,2.72
2024-01-21T03:08:33.460Z,2.80
2024-01-21T03:12:37.443Z,2.83
2024-01-21T03:16:39.561Z,2.86
2024-01-21T03:20:41.691Z,2.85
2024-01-21T03:24:43.898Z,2.89
2024-01-21T03:28:46.022Z,2.79
2024-01-21T03:32:48.237Z,2.78
2024-01-21T03:36:50.482Z,2.92
2024-01-21T03:40:52.618Z,2.98
2024-01-21T03:44:54.744Z,3.01
2024-01-21T03:48:57.029Z,2.93
2024-01-21T03:53:00.272Z,2.73
2024-01-21T03:57:02.401Z,2.64
2024-01-21T04:01:05.065Z,2.65
2024-01-21T04:05:08.215Z,2.76
2024-01-21T04:09:11.484Z,2.74
2024-01-21T04:13:13.751Z,2.64
2024-01-21T04:17:15.972Z,2.64
2024-01-21T04:21:18.792Z,2.76
2024-01-21T04:25:20.874Z,2.77
2024-01-21T04:29:23.007Z,2.70
2024-01-21T04:33:25.175Z,2.72
2024-01-21T04:37:27.277Z,2.72
2024-01-21T04:41:29.443Z,2.61
2024-01-21T04:45:31.590Z,2.61
2024-01-21T04:49:33.872Z,2.74
2024-01-21T04:53:38.929Z,2.78
2024-01-21T04:57:41.452Z,2.82
2024-01-21T05:01:44.045Z,2.76
2024-01-21T05:05:46.165Z,2.68
2024-01-21T05:09:48.346Z,2.61
2024-01-21T05:13:52.211Z,2.57
2024-01-21T05:17:57.809Z,2.51
2024-01-21T05:21:59.995Z,2.47
2024-01-21T05:26:02.143Z,2.49
2024-01-21T05:30:07.977Z,2.38
2024-01-21T05:34:14.786Z,2.43
2024-01-21T05:38:26.328Z,2.36
2024-01-21T05:42:34.745Z,2.31
2024-01-21T05:46:42.938Z,2.41
2024-01-21T05:50:50.296Z,2.38
2024-01-21T05:54:59.119Z,2.31
2024-01-21T05:59:07.098Z,2.23
2024-01-21T06:03:14.783Z,2.20
2024-01-21T06:07:22.435Z,2.17
2024-01-21T06:11:27.553Z,2.10
2024-01-21T06:15:29.703Z,2.07
2024-01-21T06:19:31.930Z,2.12
2024-01-21T06:23:34.079Z,2.08
2024-01-21T06:27:36.283Z,2.04
2024-01-21T06:31:38.457Z,2.07
2024-01-21T06:35:40.983Z,2.08
2024-01-21T06:39:51.077Z,2.18
2024-01-21T06:43:59.265Z,2.22
2024-01-21T06:48:01.486Z,2.37
2024-01-21T06:52:05.764Z,2.43
2024-01-21T06:56:10.974Z,2.55
2024-01-21T07:00:13.898Z,2.61
2024-01-21T07:04:16.566Z,2.79
2024-01-21T07:08:20.034Z,2.72
2024-01-21T07:12:22.096Z,2.87
2024-01-21T07:16:24.284Z,2.86
2024-01-21T07:20:26.377Z,2.89
2024-01-21T07:24:28.533Z,2.94
2024-01-21T07:28:30.695Z,2.91
2024-01-21T07:32:32.896Z,2.94
2024-01-21T07:36:35.053Z,2.95
2024-01-21T07:40:37.144Z,3.02
2024-01-21T07:44:39.384Z,3.16
2024-01-21T07:48:41.568Z,3.14
2024-01-21T07:52:44.195Z,3.27
2024-01-21T07:56:46.445Z,3.31
2024-01-21T08:00:48.966Z,3.36
2024-01-21T08:04:51.115Z,3.40
2024-01-21T08:08:53.186Z,3.60
2024-01-21T08:12:55.609Z,3.73
2024-01-21T08:16:57.733Z,3.83
2024-01-21T08:20:59.839Z,3.94
2024-01-21T08:25:02.653Z,4.07
2024-01-21T08:29:05.062Z,4.22
2024-01-21T08:33:07.242Z,4.42
2024-01-21T08:37:09.735Z,4.61
2024-01-21T08:41:12.885Z,4.76
2024-01-21T08:45:15.315Z,4.81
2024-01-21T08:49:17.969Z,4.99
2024-01-21T08:53:22.117Z,5.10
2024-01-21T08:57:24.299Z,5.05
2024-01-21T09:01:26.712Z,5.15
2024-01-21T09:05:29.766Z,5.35
2024-01-21T09:09:32.553Z,5.46
2024-01-21T09:13:35.075Z,5.45
2024-01-21T09:17:37.327Z,5.50
2024-01-21T09:21:39.538Z,5.56
2024-01-21T09:25:41.732Z,5.42
2024-01-21T09:29:45.161Z,5.55
2024-01-21T09:33:47.486Z,5.62
2024-01-21T09:37:49.968Z,5.71
2024-01-21T09:41:53.484Z,5.89
2024-01-21T09:45:58.455Z,6.00
2024-01-21T09:50:00.726Z,6.08
2024-01-21T09:54:06.113Z,6.13
2024-01-21T09:58:14.700Z,6.16
2024-01-21T10:02:17.996Z,6.26
2024-01-21T10:06:20.604Z,6.41
2024-01-21T10:10:22.827Z,6.55
2024-01-21T10:14:33.013Z,6.67
2024-01-21T10:18:36.187Z,6.70
2024-01-21T10:22:38.677Z,6.82
2024-01-21T10:26:44.388Z,6.96
2024-01-21T10:30:46.778Z,6.95
2024-01-21T10:34:53.784Z,7.05
2024-01-21T10:38:56.636Z,7.22
2024-01-21T10:43:00.730Z,7.34
2024-01-21T10:47:03.915Z,7.44
2024-01-21T10:51:07.430Z,7.44
2024-01-21T10:55:09.935Z,7.51
2024-01-21T10:59:12.446Z,7.55
2024-01-21T11:03:26.529Z,7.52
2024-01-21T11:07:31.345Z,7.68
2024-01-21T11:11:43.056Z,7.73
2024-01-21T11:15:49.036Z,7.86
2024-01-21T11:19:55.923Z,7.96
2024-01-21T11:24:06.428Z,8.11
2024-01-21T11:28:27.896Z,8.03
2024-01-21T11:32:32.066Z,8.22
2024-01-21T11:36:34.862Z,8.32
2024-01-21T11:40:36.996Z,8.48
2024-01-21T11:44:41.167Z,8.45
2024-01-21T11:48:43.336Z,8.62
2024-01-21T11:52:46.588Z,8.75
2024-01-21T11:56:48.997Z,8.78
2024-01-21T12:00:51.398Z,8.93
2024-01-21T12:04:56.209Z,9.04
2024-01-21T12:09:01.084Z,9.05
2024-01-21T12:13:06.840Z,9.14
2024-01-21T12:17:09.140Z,9.18
2024-01-21T12:21:14.833Z,9.26
2024-01-21T12:25:18.694Z,9.30
2024-01-21T12:29:21.584Z,9.39
2024-01-21T12:33:24.016Z,9.39
2024-01-21T12:37:26.304Z,9.41
2024-01-21T12:41:28.629Z,9.53
2024-01-21T12:45:30.814Z,9.59
2024-01-21T12:49:33.463Z,9.65
2024-01-21T12:53:35.777Z,9.71
2024-01-21T12:57:38.099Z,9.79
2024-01-21T13:01:41.346Z,9.88
2024-01-21T13:05:44.003Z,9.90
2024-01-21T13:09:46.864Z,9.98
2024-01-21T13:13:49.185Z,9.99
2024-01-21T13:17:52.470Z,10.05
2024-01-21T13:21:54.682Z,10.13
2024-01-21T13:25:56.998Z,10.13
2024-01-21T13:30:18.197Z,10.19
2024-01-21T13:34:20.614Z,10.20
2024-01-21T13:38:31.629Z,10.10
2024-01-21T13:42:34.296Z,10.07
2024-01-21T13:46:36.466Z,10.02
2024-01-21T13:50:42.116Z,10.03
2024-01-21T13:54:46.700Z,10.09
2024-01-21T13:58:48.940Z,10.09
2024-01-21T14:02:57.046Z,10.10
2024-01-21T14:06:59.503Z,10.12
2024-01-21T14:11:01.769Z,10.14
2024-01-21T14:15:04.556Z,10.18
2024-01-21T14:19:07.072Z,10.25
2024-01-21T14:23:09.246Z,10.25
2024-01-21T14:27:11.713Z,10.20
2024-01-21T14:31:14.148Z,10.17
2024-01-21T14:35:16.400Z,10.11
2024-01-21T14:39:19.086Z,10.07
2024-01-21T14:43:21.289Z,9.99
2024-01-21T14:47:23.614Z,9.95
2024-01-21T14:51:25.812Z,9.81
2024-01-21T14:55:27.968Z,9.80
2024-01-21T14:59:34.416Z,9.71
2024-01-21T15:03:36.644Z,9.73
2024-01-21T15:07:42.393Z,9.66
2024-01-21T15:11:47.333Z,9.56
2024-01-21T15:15:49.595Z,9.40
2024-01-21T15:19:51.834Z,9.27
2024-01-21T15:23:53.996Z,9.15
2024-01-21T15:27:56.700Z,8.94
2024-01-21T15:31:59.151Z,8.73
2024-01-21T15:36:01.339Z,8.48
2024-01-21T15:40:05.301Z,8.26
2024-01-21T15:44:07.566Z,8.14
2024-01-21T15:48:10.321Z,7.95
2024-01-21T15:52:12.911Z,7.71
2024-01-21T15:56:15.021Z,7.41
2024-01-21T16:00:18.401Z,7.21
2024-01-21T16:04:20.819Z,7.14
2024-01-21T16:08:23.141Z,7.13
2024-01-21T16:12:25.577Z,7.02
2024-01-21T16:16:27.838Z,6.82
2024-01-21T16:20:32.306Z,6.66
2024-01-21T16:24:36.391Z,6.52
2024-01-21T16:28:38.608Z,6.39
2024-01-21T16:32:40.871Z,6.23
2024-01-21T16:36:43.296Z,6.14
2024-01-21T16:40:45.650Z,6.08
2024-01-21T16:44:47.925Z,5.97
2024-01-21T16:48:50.280Z,5.89
2024-01-21T16:52:58.170Z,5.89
2024-01-21T16:57:00.545Z,6.07
2024-01-21T17:01:07.529Z,6.04
2024-01-21T17:05:10.190Z,5.97
2024-01-21T17:09:12.782Z,5.70
2024-01-21T17:13:15.220Z,5.39
2024-01-21T17:17:20.075Z,5.21
2024-01-21T17:21:22.211Z,5.00
2024-01-21T17:25:24.652Z,4.83
2024-01-21T17:29:26.970Z,4.66
2024-01-21T17:33:30.384Z,4.62
2024-01-21T17:37:33.197Z,4.58
2024-01-21T17:41:35.467Z,4.46
2024-01-21T17:45:38.051Z,4.34
2024-01-21T17:49:40.385Z,4.23
2024-01-21T17:53:42.742Z,4.05
2024-01-21T17:57:44.997Z,4.02
2024-01-21T18:01:47.228Z,4.02
2024-01-21T18:05:49.587Z,3.72
2024-01-21T18:09:52.161Z,3.13
2024-01-21T18:13:54.295Z,3.49
2024-01-21T18:17:56.463Z,3.18
2024-01-21T18:21:59.810Z,2.98
2024-01-21T18:26:02.027Z,3.01
2024-01-21T18:30:04.860Z,2.95
2024-01-21T18:34:08.033Z,2.81
2024-01-21T18:38:10.558Z,2.79
2024-01-21T18:42:12.749Z,2.75
2024-01-21T18:46:14.998Z,2.52
2024-01-21T18:50:17.831Z,2.40
2024-01-21T18:54:20.807Z,2.50
2024-01-21T18:58:27.712Z,2.19
2024-01-21T19:02:30.411Z,1.88
2024-01-21T19:06:32.578Z,1.70
2024-01-21T19:10:35.277Z,1.80
2024-01-21T19:14:37.593Z,1.66
2024-01-21T19:18:42.709Z,1.47
2024-01-21T19:22:46.504Z,1.14
2024-01-21T19:26:48.749Z,1.20
2024-01-21T19:30:50.851Z,1.10
2024-01-21T19:34:54.884Z,0.83
2024-01-21T19:38:57.239Z,0.60
2024-01-21T19:42:59.583Z,0.41
2024-01-21T19:47:01.749Z,0.41
2024-01-21T19:51:06.007Z,0.22
2024-01-21T19:55:10.389Z,0.02
2024-01-21T19:59:14.163Z,0.20
2024-01-21T20:03:16.409Z,0.16
2024-01-21T20:07:23.038Z,0.15
2024-01-21T20:11:25.557Z,0.12
2024-01-21T20:15:28.260Z,0.13
2024-01-21T20:19:30.575Z,0.01
2024-01-21T20:23:34.058Z,-0.10
2024-01-21T20:27:37.416Z,-0.36
2024-01-21T20:31:39.629Z,-0.42
2024-01-21T20:35:41.892Z,-0.45
2024-01-21T20:39:44.790Z,-0.38
2024-01-21T20:43:48.495Z,-0.20
2024-01-21T20:47:50.779Z,-0.36
2024-01-21T20:51:53.135Z,-0.42
2024-01-21T20:55:56.651Z,-0.40
2024-01-21T20:59:58.885Z,-0.48
2024-01-21T21:04:02.437Z,-0.50
2024-01-21T21:08:06.638Z,-0.54
2024-01-21T21:12:09.347Z,-0.56
2024-01-21T21:16:14.179Z,-0.73
2024-01-21T21:20:17.176Z,-0.78
2024-01-21T21:24:20.053Z,-0.83
2024-01-21T21:28:22.493Z,-0.98
2024-01-21T21:32:25.484Z,-1.18
2024-01-21T21:36:27.860Z,-1.28
2024-01-21T21:40:30.108Z,-1.31
2024-01-21T21:44:32.312Z,-1.47
2024-01-21T21:48:34.604Z,-1.31
2024-01-21T21:52:37.094Z,-1.20
2024-01-21T21:56:39.767Z,-1.23
2024-01-21T22:00:43.189Z,-1.30
2024-01-21T22:04:50.239Z,-1.05
2024-01-21T22:08:58.660Z,-1.12
2024-01-21T22:13:02.883Z,-1.23
2024-01-21T22:17:05.879Z,-1.31
2024-01-21T22:21:17.634Z,-1.34
2024-01-21T22:25:20.634Z,-1.49
2024-01-21T22:29:23.320Z,-1.41
2024-01-21T22:33:25.763Z,-1.46
2024-01-21T22:37:28.562Z,-1.41
2024-01-21T22:41:34.057Z,-1.56
2024-01-21T22:45:38.391Z,-1.65
2024-01-21T22:49:42.802Z,-1.55
2024-01-21T22:53:49.909Z,-1.63
2024-01-21T22:57:52.189Z,-1.63
2024-01-21T23:01:54.302Z,-1.65
2024-01-21T23:05:56.962Z,-1.76
2024-01-21T23:09:59.426Z,-1.73
2024-01-21T23:14:01.858Z,-1.83
2024-01-21T23:18:04.034Z,-2.00
2024-01-21T23:22:06.189Z,-1.87
2024-01-21T23:26:08.764Z,-1.97
2024-01-21T23:30:11.426Z,-1.84
2024-01-21T23:34:14.062Z,-1.71
2024-01-21T23:38:16.547Z,-1.70
2024-01-21T23:42:18.777Z,-1.79
2024-01-21T23:46:24.144Z,-1.83
2024-01-21T23:50:26.789Z,-1.89
2024-01-21T23:54:29.381Z,-1.89
2024-01-21T23:58:34.054Z,-1.93
